Time;durP1;ratioP1;P1;durP2;ratioP2;P2;SDS_P1;SDS_P2;PMS_P1;PMS_P2;Temp;Humidity;BMP_temperature;BMP_pressure;BME280_temperature;BME280_humidity;BME280_pressure;Samples;Min_cycle;Max_cycle;Signal;HPM_P1;HPM_P2
2023/02/09 00:02:06;;;;;;;39.20;14.07;;;;;;;;;;5031715;28;20073;-75
2023/02/09 00:04:33;;;;;;;35.47;13.77;;;;;;;;;;5032549;28;20026;-78
2023/02/09 00:07:01;;;;;;;30.27;13.70;;;;;;;;;;5015412;28;20025;-78
2023/02/09 00:09:27;;;;;;;33.93;13.27;;;;;;;;;;5031661;28;20044;-76
2023/02/09 00:14:37;;;;;;;44.40;14.87;;;;;;;;;;5033056;28;20052;-77
2023/02/09 00:17:03;;;;;;;30.10;12.10;;;;;;;;;;5031355;28;20465;-76
2023/02/09 00:19:29;;;;;;;32.63;11.70;;;;;;;;;;5014975;28;20041;-76
2023/02/09 00:21:56;;;;;;;35.03;14.23;;;;;;;;;;5014693;28;20040;-77
2023/02/09 00:24:22;;;;;;;28.43;11.70;;;;;;;;;;5031630;28;20064;-77
2023/02/09 00:26:47;;;;;;;31.17;13.00;;;;;;;;;;5032489;28;20088;-78
2023/02/09 00:29:14;;;;;;;29.00;12.20;;;;;;;;;;5030910;28;20033;-77
2023/02/09 00:31:40;;;;;;;32.63;13.00;;;;;;;;;;5033251;28;20025;-75
2023/02/09 00:34:06;;;;;;;36.80;12.80;;;;;;;;;;5030464;28;20562;-78
2023/02/09 00:36:32;;;;;;;25.07;11.57;;;;;;;;;;5032706;28;20052;-75
2023/02/09 00:38:58;;;;;;;38.77;11.10;;;;;;;;;;5027521;28;20124;-76
2023/02/09 00:42:09;;;;;;;30.30;12.27;;;;;;;;;;5012472;28;20076;-75
2023/02/09 00:44:10;;;;;;;31.93;12.30;;;;;;;;;;5004872;28;20045;-75
2023/02/09 00:46:36;;;;;;;23.47;11.07;;;;;;;;;;5010892;28;20025;-77
2023/02/09 00:49:02;;;;;;;31.63;11.80;;;;;;;;;;5010916;28;20044;-77
2023/02/09 00:51:28;;;;;;;31.33;12.73;;;;;;;;;;5011928;28;20029;-76
2023/02/09 00:53:53;;;;;;;31.33;12.27;;;;;;;;;;5012034;28;20033;-76
2023/02/09 00:56:19;;;;;;;27.87;12.20;;;;;;;;;;5011075;28;20395;-75
2023/02/09 00:58:44;;;;;;;29.60;11.80;;;;;;;;;;5010486;28;20033;-76
2023/02/09 01:01:12;;;;;;;33.90;12.37;;;;;;;;;;5010927;28;20038;-76
2023/02/09 01:03:38;;;;;;;26.90;10.80;;;;;;;;;;5011726;28;20029;-77
2023/02/09 01:06:04;;;;;;;39.00;12.93;;;;;;;;;;5027120;28;20478;-76
2023/02/09 01:08:30;;;;;;;26.73;11.60;;;;;;;;;;5026790;28;20092;-76
2023/02/09 01:10:55;;;;;;;30.50;12.00;;;;;;;;;;5026956;28;20117;-75
2023/02/09 01:13:21;;;;;;;32.40;13.27;;;;;;;;;;5011777;28;20125;-75
2023/02/09 01:15:47;;;;;;;30.63;12.33;;;;;;;;;;5012170;28;20060;-76
2023/02/09 01:18:12;;;;;;;32.07;11.47;;;;;;;;;;5011514;28;20061;-77
2023/02/09 01:20:40;;;;;;;24.07;9.93;;;;;;;;;;5011181;28;20041;-75
2023/02/09 01:23:05;;;;;;;26.27;11.07;;;;;;;;;;5011312;28;20033;-78
2023/02/09 01:25:31;;;;;;;30.53;11.27;;;;;;;;;;5012886;28;20498;-77
2023/02/09 01:27:56;;;;;;;27.30;11.03;;;;;;;;;;5012079;28;20022;-77
2023/02/09 01:30:22;;;;;;;31.43;11.67;;;;;;;;;;5011437;28;20049;-78
2023/02/09 01:32:47;;;;;;;33.77;12.63;;;;;;;;;;5010123;28;20022;-76
2023/02/09 01:35:13;;;;;;;31.13;11.57;;;;;;;;;;5011688;28;20096;-76
2023/02/09 01:37:38;;;;;;;35.60;11.57;;;;;;;;;;5010343;28;20438;-76
2023/02/09 01:40:05;;;;;;;34.57;12.27;;;;;;;;;;5025933;28;20111;-79
2023/02/09 01:42:32;;;;;;;30.03;11.87;;;;;;;;;;5011285;28;20064;-76
2023/02/09 01:45:05;;;;;;;31.77;11.47;;;;;;;;;;5009867;28;20537;-77
2023/02/09 01:47:34;;;;;;;34.53;12.60;;;;;;;;;;5010035;28;20376;-76
2023/02/09 01:49:59;;;;;;;29.40;11.40;;;;;;;;;;5011579;28;20038;-76
2023/02/09 01:52:28;;;;;;;25.63;11.57;;;;;;;;;;5026570;28;20397;-76
2023/02/09 01:55:01;;;;;;;36.97;12.47;;;;;;;;;;5009421;28;20034;-76
2023/02/09 01:57:34;;;;;;;25.80;11.93;;;;;;;;;;5010958;28;20420;-76
2023/02/09 02:00:09;;;;;;;26.63;11.63;;;;;;;;;;5011278;28;20034;-76
2023/02/09 02:02:35;;;;;;;31.63;10.93;;;;;;;;;;5009738;28;20026;-76
2023/02/09 02:05:02;;;;;;;29.23;11.17;;;;;;;;;;5009608;28;20065;-77
2023/02/09 02:07:48;;;;;;;27.67;11.10;;;;;;;;;;5021885;28;20457;-75
2023/02/09 02:10:13;;;;;;;31.93;11.97;;;;;;;;;;5028214;28;20444;-76
2023/02/09 02:12:40;;;;;;;31.83;11.17;;;;;;;;;;5030705;28;20032;-75
2023/02/09 02:15:08;;;;;;;26.03;10.57;;;;;;;;;;5030252;28;20067;-75
2023/02/09 02:17:50;;;;;;;31.60;11.63;;;;;;;;;;5029245;28;20029;-76
2023/02/09 02:20:46;;;;;;;25.33;12.75;;;;;;;;;;5030214;28;20037;-77
2023/02/09 02:23:47;;;;;;;24.97;11.60;;;;;;;;;;5028889;28;20641;-77
2023/02/09 02:26:38;;;;;;;27.40;11.70;;;;;;;;;;5029185;28;20037;-76
2023/02/09 02:29:30;;;;;;;28.58;10.55;;;;;;;;;;5022567;28;20044;-76
2023/02/09 02:32:04;;;;;;;27.60;10.60;;;;;;;;;;5030548;28;20038;-77
2023/02/09 02:34:35;;;;;;;28.13;11.43;;;;;;;;;;5028626;28;20450;-77
2023/02/09 02:37:10;;;;;;;23.30;10.13;;;;;;;;;;5028795;28;20092;-75
2023/02/09 02:39:50;;;;;;;35.63;13.13;;;;;;;;;;5030207;28;20058;-75
2023/02/09 02:43:00;;;;;;;32.17;11.23;;;;;;;;;;5028876;28;20045;-78
2023/02/09 02:46:20;;;;;;;35.97;11.33;;;;;;;;;;5024240;28;20052;-75
2023/02/09 02:48:53;;;;;;;24.70;10.37;;;;;;;;;;5007243;28;20045;-77
2023/02/09 02:51:41;;;;;;;22.97;10.07;;;;;;;;;;5030002;28;20029;-76
2023/02/09 02:54:13;;;;;;;25.77;10.77;;;;;;;;;;5029791;28;20083;-74
2023/02/09 02:56:46;;;;;;;23.77;10.27;;;;;;;;;;5028577;28;20029;-76
2023/02/09 02:59:16;;;;;;;29.23;10.97;;;;;;;;;;5029601;28;20653;-76
2023/02/09 03:01:52;;;;;;;27.53;11.70;;;;;;;;;;5028289;28;20029;-76
2023/02/09 03:04:19;;;;;;;25.40;12.57;;;;;;;;;;5027749;28;20119;-76
2023/02/09 03:06:44;;;;;;;30.83;12.13;;;;;;;;;;5029490;28;20168;-77
2023/02/09 03:09:10;;;;;;;28.07;11.50;;;;;;;;;;5028165;28;20544;-76
2023/02/09 03:11:43;;;;;;;29.63;10.90;;;;;;;;;;5029780;28;20072;-76
2023/02/09 03:14:24;;;;;;;29.60;11.13;;;;;;;;;;5028252;28;20030;-74
2023/02/09 03:17:13;;;;;;;25.00;10.30;;;;;;;;;;5029316;28;20033;-76
2023/02/09 03:20:04;;;;;;;29.10;10.53;;;;;;;;;;5031420;28;20079;-75
2023/02/09 03:22:37;;;;;;;25.27;10.30;;;;;;;;;;5033085;28;20025;-77
2023/02/09 03:25:17;;;;;;;25.77;10.40;;;;;;;;;;5031593;28;20060;-75
2023/02/09 03:28:01;;;;;;;29.50;11.50;;;;;;;;;;5033435;28;20060;-78
2023/02/09 03:30:27;;;;;;;34.13;11.30;;;;;;;;;;5033134;28;20032;-75
2023/02/09 03:32:55;;;;;;;29.53;10.70;;;;;;;;;;5033865;28;20462;-76
2023/02/09 03:35:23;;;;;;;32.00;11.27;;;;;;;;;;5032732;28;20017;-76
2023/02/09 03:37:49;;;;;;;23.93;10.23;;;;;;;;;;5033057;28;20340;-75
2023/02/09 03:40:14;;;;;;;25.60;10.50;;;;;;;;;;5031776;28;20056;-76
2023/02/09 03:42:40;;;;;;;30.70;11.77;;;;;;;;;;5031926;28;20103;-75
2023/02/09 03:45:06;;;;;;;31.63;13.00;;;;;;;;;;5032711;28;20387;-75
2023/02/09 03:47:33;;;;;;;24.93;9.73;;;;;;;;;;5032822;28;20037;-77
2023/02/09 03:49:58;;;;;;;27.50;11.27;;;;;;;;;;5014930;28;20041;-76
2023/02/09 03:52:24;;;;;;;25.43;11.23;;;;;;;;;;5031092;28;20075;-76
2023/02/09 03:54:50;;;;;;;28.33;12.13;;;;;;;;;;5031674;28;20040;-75
2023/02/09 03:57:15;;;;;;;26.27;11.77;;;;;;;;;;5032867;28;20029;-76
2023/02/09 03:59:41;;;;;;;28.47;10.77;;;;;;;;;;5033314;28;20025;-75
2023/02/09 04:02:08;;;;;;;28.47;11.80;;;;;;;;;;5032758;28;20133;-75
2023/02/09 04:04:34;;;;;;;23.83;10.50;;;;;;;;;;5032264;28;20053;-75
2023/02/09 04:06:59;;;;;;;29.37;10.07;;;;;;;;;;5032648;28;20472;-75
2023/02/09 04:09:25;;;;;;;27.67;11.33;;;;;;;;;;5032178;28;20040;-75
2023/02/09 04:11:51;;;;;;;29.83;12.60;;;;;;;;;;5032647;28;20030;-75
2023/02/09 04:14:17;;;;;;;29.60;11.40;;;;;;;;;;5032408;28;20359;-75
2023/02/09 04:16:42;;;;;;;34.60;12.20;;;;;;;;;;5032685;28;20029;-76
2023/02/09 04:19:08;;;;;;;25.60;12.53;;;;;;;;;;5030946;28;20021;-75
2023/02/09 04:21:36;;;;;;;23.07;10.80;;;;;;;;;;5031858;28;20068;-76
2023/02/09 04:24:02;;;;;;;25.60;11.07;;;;;;;;;;5032450;28;20079;-75
2023/02/09 04:26:29;;;;;;;30.13;11.67;;;;;;;;;;5030675;28;20061;-77
2023/02/09 04:28:54;;;;;;;32.33;10.97;;;;;;;;;;5030868;28;20029;-74
2023/02/09 04:31:19;;;;;;;33.27;12.33;;;;;;;;;;5030884;28;20028;-76
2023/02/09 04:33:45;;;;;;;27.60;10.87;;;;;;;;;;5031173;28;20025;-77
2023/02/09 04:36:11;;;;;;;28.40;11.47;;;;;;;;;;5032707;28;20034;-76
2023/02/09 04:38:36;;;;;;;30.23;12.00;;;;;;;;;;5022295;28;20065;-77
2023/02/09 04:41:02;;;;;;;28.03;10.63;;;;;;;;;;5010940;28;20064;-76
2023/02/09 04:43:28;;;;;;;27.30;10.70;;;;;;;;;;5012105;28;20052;-77
2023/02/09 04:45:54;;;;;;;32.93;11.00;;;;;;;;;;5012568;28;20030;-76
2023/02/09 04:48:21;;;;;;;29.33;11.30;;;;;;;;;;5011878;28;20125;-76
2023/02/09 04:50:49;;;;;;;26.77;9.90;;;;;;;;;;5010755;28;20367;-75
2023/02/09 04:53:15;;;;;;;30.80;11.30;;;;;;;;;;5012228;28;20017;-76
2023/02/09 04:55:42;;;;;;;30.60;11.47;;;;;;;;;;5011927;28;20361;-76
2023/02/09 05:01:01;;;;;;;23.58;9.63;;;;;;;;;;5012738;28;20033;-76
2023/02/09 05:03:26;;;;;;;27.03;11.80;;;;;;;;;;5010325;28;20029;-74
2023/02/09 05:06:01;;;;;;;36.03;12.90;;;;;;;;;;5010165;28;20103;-76
2023/02/09 05:08:27;;;;;;;27.13;12.40;;;;;;;;;;5010358;28;20056;-78
2023/02/09 05:10:53;;;;;;;28.87;10.53;;;;;;;;;;5010697;28;20029;-76
2023/02/09 05:13:20;;;;;;;27.77;11.50;;;;;;;;;;5010235;28;20029;-77
2023/02/09 05:15:46;;;;;;;28.43;12.30;;;;;;;;;;4993857;28;20041;-78
2023/02/09 05:18:12;;;;;;;30.03;12.50;;;;;;;;;;5026677;28;20021;-75
2023/02/09 05:20:37;;;;;;;35.07;12.17;;;;;;;;;;5010286;28;20364;-76
2023/02/09 05:23:04;;;;;;;25.27;12.77;;;;;;;;;;5011825;28;20022;-76
2023/02/09 05:25:29;;;;;;;29.37;11.60;;;;;;;;;;5011589;28;20101;-76
2023/02/09 05:27:55;;;;;;;27.53;12.07;;;;;;;;;;5011474;28;20104;-76
2023/02/09 05:30:21;;;;;;;31.33;12.57;;;;;;;;;;5026218;28;20251;-76
2023/02/09 05:32:46;;;;;;;29.10;11.27;;;;;;;;;;5011091;28;20085;-76
2023/02/09 05:35:12;;;;;;;30.80;12.43;;;;;;;;;;5026038;28;20424;-76
2023/02/09 05:37:37;;;;;;;28.73;11.10;;;;;;;;;;5026134;28;20044;-75
2023/02/09 05:40:03;;;;;;;24.30;11.33;;;;;;;;;;5010848;28;20042;-75
2023/02/09 05:42:29;;;;;;;26.50;12.03;;;;;;;;;;5009525;28;20409;-76
2023/02/09 05:44:54;;;;;;;30.50;12.57;;;;;;;;;;5010877;28;20041;-77
2023/02/09 05:47:21;;;;;;;30.57;13.10;;;;;;;;;;5011184;28;20140;-77
2023/02/09 05:49:48;;;;;;;32.60;12.43;;;;;;;;;;5011382;28;20033;-75
2023/02/09 05:52:15;;;;;;;37.00;14.33;;;;;;;;;;5010885;28;20389;-75
2023/02/09 05:54:41;;;;;;;28.27;11.30;;;;;;;;;;5010745;28;20025;-75
2023/02/09 05:57:07;;;;;;;28.33;11.17;;;;;;;;;;5015105;28;20051;-76
2023/02/09 05:59:33;;;;;;;34.17;12.10;;;;;;;;;;5030626;28;20101;-74
2023/02/09 06:01:59;;;;;;;45.40;14.70;;;;;;;;;;5030364;28;20108;-79
2023/02/09 06:04:26;;;;;;;39.90;14.03;;;;;;;;;;5012494;28;20485;-78
2023/02/09 06:06:51;;;;;;;27.07;12.13;;;;;;;;;;5020776;28;20474;-77
2023/02/09 06:09:17;;;;;;;29.00;12.33;;;;;;;;;;5022690;28;20108;-77
2023/02/09 06:11:44;;;;;;;33.67;12.93;;;;;;;;;;5030356;28;20034;-79
2023/02/09 06:14:10;;;;;;;27.23;12.00;;;;;;;;;;5022183;28;20095;-76
2023/02/09 06:16:36;;;;;;;22.47;10.93;;;;;;;;;;5028583;28;20025;-78
2023/02/09 06:19:04;;;;;;;28.67;11.80;;;;;;;;;;5025844;28;20083;-77
2023/02/09 06:21:29;;;;;;;35.00;13.10;;;;;;;;;;5027058;28;20040;-78
2023/02/09 06:23:55;;;;;;;29.47;12.17;;;;;;;;;;5024011;28;20034;-79
2023/02/09 06:26:20;;;;;;;28.00;11.47;;;;;;;;;;5028941;28;20060;-77
2023/02/09 06:28:46;;;;;;;28.10;13.27;;;;;;;;;;5028981;28;20025;-79
2023/02/09 06:31:12;;;;;;;34.80;12.77;;;;;;;;;;5024677;28;20136;-79
2023/02/09 06:33:38;;;;;;;32.93;12.47;;;;;;;;;;5030116;28;20171;-80
2023/02/09 06:36:05;;;;;;;27.57;10.43;;;;;;;;;;5025090;28;20348;-78
2023/02/09 06:38:32;;;;;;;29.30;11.70;;;;;;;;;;5024868;28;20103;-79
2023/02/09 06:40:57;;;;;;;36.10;13.83;;;;;;;;;;5037483;28;20453;-79
2023/02/09 06:43:23;;;;;;;31.00;12.67;;;;;;;;;;5010338;28;20529;-77
2023/02/09 06:45:48;;;;;;;32.47;12.93;;;;;;;;;;5033525;28;20033;-76
2023/02/09 06:48:14;;;;;;;32.47;12.40;;;;;;;;;;5016723;28;20029;-76
2023/02/09 06:50:39;;;;;;;30.63;12.97;;;;;;;;;;5018032;28;20040;-77
2023/02/09 06:53:05;;;;;;;38.20;12.13;;;;;;;;;;5022674;28;20026;-79
2023/02/09 06:55:32;;;;;;;35.73;14.03;;;;;;;;;;5024002;28;20040;-79
2023/02/09 06:57:57;;;;;;;28.50;11.87;;;;;;;;;;5044742;28;20394;-78
2023/02/09 07:00:23;;;;;;;26.33;11.93;;;;;;;;;;5020052;28;20057;-79
2023/02/09 07:02:49;;;;;;;39.03;13.40;;;;;;;;;;5036177;28;20033;-76
2023/02/09 07:05:16;;;;;;;34.97;13.47;;;;;;;;;;5032735;28;20036;-78
2023/02/09 07:07:42;;;;;;;27.60;13.77;;;;;;;;;;5023646;28;20037;-80
2023/02/09 07:10:09;;;;;;;28.07;12.67;;;;;;;;;;5037654;28;20449;-80
2023/02/09 07:12:34;;;;;;;33.83;14.33;;;;;;;;;;5025911;28;20413;-79
2023/02/09 07:15:00;;;;;;;46.17;15.23;;;;;;;;;;5018863;28;20108;-78
2023/02/09 07:17:30;;;;;;;35.37;13.77;;;;;;;;;;5030449;28;20049;-76
2023/02/09 07:19:56;;;;;;;39.90;14.60;;;;;;;;;;5023724;28;20025;-78
2023/02/09 07:22:22;;;;;;;38.60;16.10;;;;;;;;;;5030804;28;20034;-79
2023/02/09 07:24:48;;;;;;;37.40;14.40;;;;;;;;;;5029037;28;20035;-77
2023/02/09 07:27:14;;;;;;;39.10;16.57;;;;;;;;;;5026088;28;20060;-77
2023/02/09 07:29:40;;;;;;;31.77;14.50;;;;;;;;;;5019099;28;20488;-77
2023/02/09 07:32:06;;;;;;;33.27;13.77;;;;;;;;;;5021300;28;20084;-79
2023/02/09 07:34:32;;;;;;;36.50;16.93;;;;;;;;;;5015400;28;20040;-79
2023/02/09 07:36:58;;;;;;;41.50;15.60;;;;;;;;;;5022214;28;20040;-77
2023/02/09 07:39:24;;;;;;;32.97;16.13;;;;;;;;;;5021601;28;20054;-76
2023/02/09 07:41:49;;;;;;;36.40;14.33;;;;;;;;;;5037494;28;20149;-76
2023/02/09 07:44:17;;;;;;;41.20;15.90;;;;;;;;;;5015210;28;20375;-76
2023/02/09 07:46:44;;;;;;;34.70;14.77;;;;;;;;;;5022935;28;20491;-76
2023/02/09 07:49:11;;;;;;;36.07;16.43;;;;;;;;;;5030433;28;20039;-79
2023/02/09 07:51:37;;;;;;;39.53;17.57;;;;;;;;;;5029330;28;20029;-77
2023/02/09 07:54:03;;;;;;;33.77;14.77;;;;;;;;;;5005210;28;20156;-80
2023/02/09 07:56:29;;;;;;;38.87;14.93;;;;;;;;;;5036245;28;20482;-79
2023/02/09 07:58:55;;;;;;;42.80;16.70;;;;;;;;;;5020956;28;20018;-76
2023/02/09 08:01:21;;;;;;;35.47;14.77;;;;;;;;;;5018105;28;20029;-79
2023/02/09 08:03:48;;;;;;;51.33;17.23;;;;;;;;;;5020891;28;20041;-79
2023/02/09 08:06:35;;;;;;;34.10;14.97;;;;;;;;;;5029990;28;20053;-80
2023/02/09 08:09:01;;;;;;;35.73;14.67;;;;;;;;;;5032166;28;20029;-78
2023/02/09 08:11:34;;;;;;;35.90;15.10;;;;;;;;;;5029884;28;20022;-75
2023/02/09 08:14:05;;;;;;;33.03;12.17;;;;;;;;;;5028961;28;20096;-80
2023/02/09 08:16:33;;;;;;;31.90;12.88;;;;;;;;;;5034163;28;20470;-77
2023/02/09 08:19:05;;;;;;;38.70;15.57;;;;;;;;;;5038018;28;20030;-76
2023/02/09 08:21:34;;;;;;;48.75;15.27;;;;;;;;;;5022606;28;20034;-78
2023/02/09 08:24:01;;;;;;;36.13;14.87;;;;;;;;;;5025986;28;20112;-80
2023/02/09 08:26:28;;;;;;;36.90;15.50;;;;;;;;;;5007428;28;20053;-76
2023/02/09 08:28:55;;;;;;;40.10;16.20;;;;;;;;;;5015611;28;20026;-77
2023/02/09 08:31:21;;;;;;;45.93;17.07;;;;;;;;;;5024833;28;20053;-77
2023/02/09 08:33:48;;;;;;;36.57;15.77;;;;;;;;;;5029070;28;20025;-78
2023/02/09 08:36:16;;;;;;;43.87;16.57;;;;;;;;;;5030956;28;20029;-79
2023/02/09 08:38:43;;;;;;;34.80;17.80;;;;;;;;;;5026254;28;20528;-79
2023/02/09 08:41:11;;;;;;;41.63;17.77;;;;;;;;;;5031418;28;20046;-78
2023/02/09 08:43:37;;;;;;;51.67;19.10;;;;;;;;;;5025076;28;20056;-78
2023/02/09 08:46:08;;;;;;;38.37;15.90;;;;;;;;;;5022505;28;20045;-77
2023/02/09 08:48:39;;;;;;;36.05;15.63;;;;;;;;;;5023810;28;20071;-78
2023/02/09 08:51:06;;;;;;;51.23;21.40;;;;;;;;;;5009024;28;20451;-77
2023/02/09 08:53:32;;;;;;;42.73;17.17;;;;;;;;;;5023115;28;20026;-78
2023/02/09 08:55:58;;;;;;;45.07;17.90;;;;;;;;;;5020757;28;20136;-78
2023/02/09 08:58:25;;;;;;;43.23;15.70;;;;;;;;;;5018234;28;20462;-79
2023/02/09 09:00:55;;;;;;;35.03;17.00;;;;;;;;;;5016995;28;20060;-77
2023/02/09 09:03:21;;;;;;;33.30;15.53;;;;;;;;;;5022110;28;20103;-80
2023/02/09 09:05:49;;;;;;;29.90;13.83;;;;;;;;;;5017243;28;20036;-78
2023/02/09 09:08:15;;;;;;;36.40;15.10;;;;;;;;;;5022961;28;20033;-80
2023/02/09 09:10:41;;;;;;;42.80;15.53;;;;;;;;;;5021939;28;20133;-79
2023/02/09 09:13:08;;;;;;;36.60;15.23;;;;;;;;;;5019954;28;20052;-80
2023/02/09 09:15:34;;;;;;;48.87;16.57;;;;;;;;;;5018488;28;20486;-77
2023/02/09 09:18:00;;;;;;;34.90;13.90;;;;;;;;;;5019011;28;20096;-78
2023/02/09 09:20:27;;;;;;;32.20;13.87;;;;;;;;;;5026318;28;20524;-79
2023/02/09 09:22:58;;;;;;;30.57;13.27;;;;;;;;;;5024819;28;20021;-80
2023/02/09 09:25:24;;;;;;;30.30;13.60;;;;;;;;;;5025115;28;20068;-78
2023/02/09 09:27:50;;;;;;;40.80;14.17;;;;;;;;;;5021398;28;20151;-77
2023/02/09 09:30:16;;;;;;;33.87;14.37;;;;;;;;;;5022575;28;20164;-78
2023/02/09 09:32:41;;;;;;;31.77;13.50;;;;;;;;;;5023360;28;20025;-78
2023/02/09 09:35:08;;;;;;;29.20;13.27;;;;;;;;;;5019284;28;20057;-78
2023/02/09 09:37:34;;;;;;;34.17;14.47;;;;;;;;;;5023019;28;20025;-78
2023/02/09 09:40:00;;;;;;;37.33;13.87;;;;;;;;;;5017649;28;20049;-78
2023/02/09 09:42:42;;;;;;;31.37;13.80;;;;;;;;;;5021410;28;20029;-77
2023/02/09 09:45:18;;;;;;;27.17;10.90;;;;;;;;;;5015134;28;20021;-78
2023/02/09 09:47:44;;;;;;;27.53;9.47;;;;;;;;;;5015883;28;20048;-76
2023/02/09 09:50:18;;;;;;;24.67;10.70;;;;;;;;;;5015594;28;20029;-81
2023/02/09 09:52:49;;;;;;;25.47;9.40;;;;;;;;;;5020861;28;20029;-79
2023/02/09 09:55:26;;;;;;;27.47;9.63;;;;;;;;;;5020566;28;20079;-78
2023/02/09 09:57:53;;;;;;;27.47;11.40;;;;;;;;;;5038632;28;20686;-81
2023/02/09 10:00:25;;;;;;;36.07;12.10;;;;;;;;;;5031227;28;20139;-77
2023/02/09 10:02:51;;;;;;;24.90;10.05;;;;;;;;;;5020427;28;20446;-77
2023/02/09 10:05:27;;;;;;;37.27;14.40;;;;;;;;;;5025059;28;20038;-75
2023/02/09 10:08:20;;;;;;;24.27;11.10;;;;;;;;;;5023064;28;20073;-77
2023/02/09 10:10:56;;;;;;;32.22;11.80;;;;;;;;;;5010624;28;20056;-80
2023/02/09 10:13:43;;;;;;;25.60;12.30;;;;;;;;;;5024049;28;20507;-76
2023/02/09 10:16:18;;;;;;;31.83;12.73;;;;;;;;;;5018025;28;20148;-77
2023/02/09 10:18:48;;;;;;;32.47;13.30;;;;;;;;;;5013613;28;20164;-78
2023/02/09 10:21:15;;;;;;;31.13;13.00;;;;;;;;;;5037225;28;20500;-77
2023/02/09 10:23:45;;;;;;;35.63;13.17;;;;;;;;;;5020836;28;20033;-79
2023/02/09 10:26:24;;;;;;;27.40;11.03;;;;;;;;;;5014088;28;20091;-76
2023/02/09 10:28:56;;;;;;;31.67;14.23;;;;;;;;;;5017849;28;20036;-76
2023/02/09 10:31:32;;;;;;;30.87;12.03;;;;;;;;;;5019847;28;20418;-80
2023/02/09 10:34:21;;;;;;;33.23;12.33;;;;;;;;;;5024842;28;20033;-78
2023/02/09 10:36:51;;;;;;;24.90;12.10;;;;;;;;;;5002609;28;20041;-78
2023/02/09 10:39:22;;;;;;;34.20;11.77;;;;;;;;;;5014403;28;20114;-76
2023/02/09 10:41:52;;;;;;;33.70;11.27;;;;;;;;;;5020634;28;20026;-79
2023/02/09 10:44:27;;;;;;;31.37;13.13;;;;;;;;;;5016647;28;20021;-80
2023/02/09 10:47:24;;;;;;;26.70;12.13;;;;;;;;;;5024642;28;20176;-79
2023/02/09 10:50:12;;;;;;;35.50;12.53;;;;;;;;;;5007055;28;20048;-79
2023/02/09 10:52:53;;;;;;;24.60;11.43;;;;;;;;;;5020071;28;20025;-81
2023/02/09 10:55:35;;;;;;;23.57;11.73;;;;;;;;;;5018361;28;20458;-78
2023/02/09 10:58:10;;;;;;;31.13;12.33;;;;;;;;;;5022916;28;20496;-77
2023/02/09 11:01:08;;;;;;;22.37;11.30;;;;;;;;;;5025684;28;20117;-79
2023/02/09 11:03:35;;;;;;;35.33;12.23;;;;;;;;;;4995807;28;20398;-77
2023/02/09 11:06:12;;;;;;;34.43;12.53;;;;;;;;;;5025670;28;20097;-78
2023/02/09 11:08:45;;;;;;;39.87;13.30;;;;;;;;;;5019921;28;20542;-80
2023/02/09 11:11:34;;;;;;;28.10;11.73;;;;;;;;;;5021434;28;20414;-80
2023/02/09 11:14:01;;;;;;;24.57;11.73;;;;;;;;;;5018335;28;20049;-77
2023/02/09 11:16:43;;;;;;;31.77;12.67;;;;;;;;;;5022051;28;20130;-80
2023/02/09 11:19:33;;;;;;;29.03;11.10;;;;;;;;;;5017876;28;20260;-78
2023/02/09 11:22:18;;;;;;;25.50;11.53;;;;;;;;;;5016546;28;20477;-77
2023/02/09 11:25:16;;;;;;;27.00;11.37;;;;;;;;;;5028077;28;20043;-78
2023/02/09 11:27:53;;;;;;;22.93;11.50;;;;;;;;;;5019576;28;20025;-79
2023/02/09 11:30:37;;;;;;;24.00;11.30;;;;;;;;;;5018333;28;20500;-78
2023/02/09 11:33:19;;;;;;;29.20;11.77;;;;;;;;;;5001249;28;20284;-79
2023/02/09 11:35:57;;;;;;;31.27;12.52;;;;;;;;;;5024378;28;20032;-78
2023/02/09 11:38:48;;;;;;;27.23;11.80;;;;;;;;;;5026162;28;20026;-77
2023/02/09 11:44:39;;;;;;;30.40;12.73;;;;;;;;;;5022079;28;20045;-79
2023/02/09 11:47:11;;;;;;;26.77;12.07;;;;;;;;;;5025288;28;20091;-76
2023/02/09 11:49:59;;;;;;;34.70;13.93;;;;;;;;;;5031223;28;20029;-77
2023/02/09 11:52:35;;;;;;;29.53;13.93;;;;;;;;;;5028126;28;20076;-77
2023/02/09 11:55:16;;;;;;;32.27;13.33;;;;;;;;;;5012637;28;20034;-78
2023/02/09 11:57:49;;;;;;;29.67;13.00;;;;;;;;;;5026901;28;20025;-81
2023/02/09 12:00:20;;;;;;;30.23;11.37;;;;;;;;;;5026183;28;20138;-78
2023/02/09 12:03:02;;;;;;;30.10;11.90;;;;;;;;;;5022612;28;20026;-77
2023/02/09 12:05:28;;;;;;;25.47;10.53;;;;;;;;;;5017952;28;20049;-78
2023/02/09 12:08:13;;;;;;;22.60;10.20;;;;;;;;;;5010673;28;20113;-76
2023/02/09 12:10:45;;;;;;;19.77;8.80;;;;;;;;;;5013958;28;20038;-77
2023/02/09 12:13:54;;;;;;;18.57;8.17;;;;;;;;;;5016900;28;20033;-79
2023/02/09 12:16:23;;;;;;;19.80;7.93;;;;;;;;;;5009338;28;20050;-79
2023/02/09 12:18:51;;;;;;;19.63;8.93;;;;;;;;;;5021877;28;20441;-79
2023/02/09 12:21:28;;;;;;;13.20;7.37;;;;;;;;;;5017543;28;20591;-78
2023/02/09 12:23:54;;;;;;;16.90;8.37;;;;;;;;;;5014369;28;20030;-78
2023/02/09 12:26:42;;;;;;;19.90;8.67;;;;;;;;;;5025826;28;20036;-79
2023/02/09 12:29:39;;;;;;;17.87;7.37;;;;;;;;;;5024331;28;20028;-77
2023/02/09 12:32:07;;;;;;;19.87;7.53;;;;;;;;;;5027313;28;20033;-75
2023/02/09 12:34:45;;;;;;;24.13;8.00;;;;;;;;;;5025457;28;20025;-77
2023/02/09 12:37:15;;;;;;;21.33;8.40;;;;;;;;;;5019466;28;20029;-78
2023/02/09 12:40:17;;;;;;;20.90;9.97;;;;;;;;;;5017311;28;20049;-78
2023/02/09 12:42:51;;;;;;;21.60;10.57;;;;;;;;;;5025534;28;20029;-77
2023/02/09 12:45:32;;;;;;;22.50;9.43;;;;;;;;;;5025660;28;20084;-76
2023/02/09 12:48:12;;;;;;;21.47;10.03;;;;;;;;;;5024866;28;20026;-76
2023/02/09 12:50:53;;;;;;;24.30;9.63;;;;;;;;;;5025845;28;20056;-77
2023/02/09 12:53:22;;;;;;;18.43;8.53;;;;;;;;;;5021733;28;20029;-78
2023/02/09 12:56:05;;;;;;;17.30;9.70;;;;;;;;;;5019218;28;20117;-74
2023/02/09 12:58:42;;;;;;;24.50;8.83;;;;;;;;;;5032432;28;20248;-79
2023/02/09 13:01:08;;;;;;;23.13;8.80;;;;;;;;;;5022222;28;20022;-77
2023/02/09 13:03:42;;;;;;;20.03;9.40;;;;;;;;;;5023542;28;20549;-77
2023/02/09 13:06:25;;;;;;;23.00;9.93;;;;;;;;;;5022641;28;20418;-75
2023/02/09 13:08:53;;;;;;;20.40;10.00;;;;;;;;;;5022765;28;20036;-76
2023/02/09 13:11:43;;;;;;;22.63;9.20;;;;;;;;;;5022004;28;20067;-75
2023/02/09 13:14:12;;;;;;;20.13;7.80;;;;;;;;;;5019230;28;20478;-76
2023/02/09 13:16:52;;;;;;;17.10;8.03;;;;;;;;;;5030266;28;20355;-77
2023/02/09 13:19:41;;;;;;;17.77;9.10;;;;;;;;;;5017395;28;20063;-77
2023/02/09 13:22:21;;;;;;;31.73;12.33;;;;;;;;;;5017065;28;20037;-78
2023/02/09 13:24:59;;;;;;;19.43;8.93;;;;;;;;;;5020504;28;20026;-80
2023/02/09 13:27:26;;;;;;;16.70;9.33;;;;;;;;;;5023476;28;20167;-78
2023/02/09 13:29:55;;;;;;;20.50;7.90;;;;;;;;;;5019071;28;20021;-79
2023/02/09 13:32:34;;;;;;;15.00;7.40;;;;;;;;;;5024533;28;20030;-77
2023/02/09 13:35:23;;;;;;;21.77;8.53;;;;;;;;;;5020084;28;20416;-77
2023/02/09 13:37:53;;;;;;;17.23;8.10;;;;;;;;;;5024110;28;20789;-77
2023/02/09 13:40:26;;;;;;;18.80;8.80;;;;;;;;;;5024125;28;20057;-77
2023/02/09 13:42:56;;;;;;;17.83;7.83;;;;;;;;;;5021973;28;20026;-77
2023/02/09 13:45:27;;;;;;;16.60;8.30;;;;;;;;;;5019424;28;20445;-77
2023/02/09 13:47:54;;;;;;;14.87;8.00;;;;;;;;;;5027236;28;20072;-78
2023/02/09 13:50:23;;;;;;;15.67;8.47;;;;;;;;;;5024203;28;20179;-76
2023/02/09 13:52:49;;;;;;;15.27;7.73;;;;;;;;;;5023925;28;20112;-79
2023/02/09 13:55:19;;;;;;;13.37;6.97;;;;;;;;;;5022927;28;20032;-79
2023/02/09 13:57:59;;;;;;;17.30;8.07;;;;;;;;;;5018278;28;20444;-77
2023/02/09 14:00:38;;;;;;;15.70;6.77;;;;;;;;;;5027053;28;20030;-78
2023/02/09 14:03:36;;;;;;;13.23;7.23;;;;;;;;;;5002869;28;20455;-77
2023/02/09 14:06:44;;;;;;;15.40;7.10;;;;;;;;;;5023703;28;20108;-78
2023/02/09 14:09:19;;;;;;;19.33;6.80;;;;;;;;;;5016032;28;20464;-76
2023/02/09 14:11:56;;;;;;;17.20;6.97;;;;;;;;;;5030286;28;20025;-78
2023/02/09 14:14:27;;;;;;;15.67;6.07;;;;;;;;;;5023118;28;20030;-76
2023/02/09 14:17:21;;;;;;;21.02;7.60;;;;;;;;;;5022524;28;20037;-77
2023/02/09 14:19:47;;;;;;;15.53;7.50;;;;;;;;;;5021287;28;20091;-78
2023/02/09 14:22:31;;;;;;;23.53;9.07;;;;;;;;;;5022110;28;20505;-78
2023/02/09 14:24:58;;;;;;;16.93;7.40;;;;;;;;;;5038330;28;20508;-79
2023/02/09 14:27:26;;;;;;;13.23;6.93;;;;;;;;;;5022218;28;20025;-80
2023/02/09 14:29:53;;;;;;;16.67;7.43;;;;;;;;;;5025259;28;20036;-78
2023/02/09 14:32:39;;;;;;;16.47;8.63;;;;;;;;;;5017072;28;20518;-77
2023/02/09 14:35:15;;;;;;;13.17;6.70;;;;;;;;;;5019521;28;20041;-77
2023/02/09 14:37:43;;;;;;;17.37;7.30;;;;;;;;;;5012428;28;20692;-80
2023/02/09 14:40:08;;;;;;;16.57;6.60;;;;;;;;;;5021513;28;20812;-80
2023/02/09 14:42:38;;;;;;;18.20;7.63;;;;;;;;;;5024117;28;20046;-77
2023/02/09 14:45:42;;;;;;;16.33;7.03;;;;;;;;;;5020602;28;20033;-80
2023/02/09 14:48:21;;;;;;;15.40;6.23;;;;;;;;;;5022192;28;20049;-78
2023/02/09 14:50:49;;;;;;;16.80;7.00;;;;;;;;;;5025194;28;20805;-75
2023/02/09 14:53:16;;;;;;;19.13;7.43;;;;;;;;;;5025350;28;20021;-79